Picacho, New Mexico
Current Conditions -  °F | °C
As of 12:51 PM on Monday 22 Dec 2014 (Local Time) from KROW Reporting Station
Clear Clear  
Wind Chill: 70°   Ceiling: Unl
Heat Index: 70°   Visibility: 10mi
Dew Point: 28°   Wind: 24mph
Humidity: 21%   Direction: 300°WNW
Pressure: 29.67"   Gusts: 32mph
Location:  33.41°N, 105.01°W
Report Text: KROW 221951Z 30021G28KT 10SM CLR 21/M02 A2967 RMK AO2 PK WND 32035/1924 SLP007 T02111022
Loading
Personal Weather Stations






























Interactive Weather Map New forecast layout! Learn more

10-Day Weather Forecast

Advertisements
Track Severe Weather on mobile